Time;durP1;ratioP1;P1;durP2;ratioP2;P2;SDS_P1;SDS_P2;PMS_P1;PMS_P2;Temp;Humidity;BMP_temperature;BMP_pressure;BME280_temperature;BME280_humidity;BME280_pressure;Samples;Min_cycle;Max_cycle;Signal;HPM_P1;HPM_P2
2023/03/08 00:00:09;;;;;;;12.90;11.18;;;;;;;4.02;63.75;96664.34;5009579;28;20068;-76
2023/03/08 00:02:36;;;;;;;15.13;11.60;;;;;;;3.94;64.48;96667.41;5020208;28;20041;-76
2023/03/08 00:05:02;;;;;;;17.63;12.27;;;;;;;3.97;64.55;96666.91;5000208;28;20036;-76
2023/03/08 00:07:27;;;;;;;14.65;11.20;;;;;;;3.92;65.03;96679.34;5010324;28;20417;-77
2023/03/08 00:09:53;;;;;;;15.27;12.20;;;;;;;3.93;64.67;96671.09;5026254;28;20076;-77
2023/03/08 00:12:18;;;;;;;14.07;12.10;;;;;;;3.90;64.21;96660.94;5036460;28;20172;-76
2023/03/08 00:14:46;;;;;;;14.45;11.32;;;;;;;3.95;64.51;96673.53;5020199;28;20402;-77
2023/03/08 00:17:11;;;;;;;14.30;11.55;;;;;;;3.99;63.76;96672.81;5026364;28;20061;-76
2023/03/08 00:19:37;;;;;;;15.93;11.95;;;;;;;3.97;63.93;96672.25;5026263;28;20520;-76
2023/03/08 00:22:03;;;;;;;18.15;11.05;;;;;;;3.93;64.60;96663.13;5019643;28;20067;-76
2023/03/08 00:24:29;;;;;;;14.32;11.10;;;;;;;3.93;64.25;96664.97;5032679;28;20100;-77
2023/03/08 00:26:54;;;;;;;13.07;11.05;;;;;;;3.95;63.42;96663.69;5019472;28;20529;-76
2023/03/08 00:29:20;;;;;;;16.25;11.90;;;;;;;3.92;64.31;96668.69;5003354;28;20493;-76
2023/03/08 00:31:45;;;;;;;13.02;11.55;;;;;;;3.93;63.52;96664.97;5009642;28;20033;-76
2023/03/08 00:34:10;;;;;;;14.85;12.10;;;;;;;3.89;64.32;96674.50;5008916;28;20033;-76
2023/03/08 00:36:39;;;;;;;12.52;10.77;;;;;;;3.88;64.63;96672.88;5016327;28;20026;-76
2023/03/08 00:39:04;;;;;;;13.85;11.48;;;;;;;3.88;64.12;96679.00;5015922;28;20488;-76
2023/03/08 00:41:30;;;;;;;13.93;12.00;;;;;;;3.93;64.61;96680.94;5020614;28;20025;-75
2023/03/08 00:43:55;;;;;;;14.38;12.25;;;;;;;3.92;64.00;96680.13;5002731;28;20420;-74
2023/03/08 00:46:20;;;;;;;16.00;12.13;;;;;;;3.87;64.19;96666.75;5032403;28;20127;-75
2023/03/08 00:48:46;;;;;;;13.35;10.70;;;;;;;3.95;63.19;96678.84;5015768;28;20024;-75
2023/03/08 00:51:15;;;;;;;13.60;11.35;;;;;;;3.86;63.75;96678.44;5019221;28;20029;-74
2023/03/08 00:53:40;;;;;;;13.30;11.10;;;;;;;3.88;63.55;96672.88;5015344;28;20033;-75
2023/03/08 00:56:06;;;;;;;16.27;12.10;;;;;;;3.92;62.61;96680.13;5042039;28;20375;-76
2023/03/08 00:58:31;;;;;;;11.95;10.65;;;;;;;3.95;63.03;96679.66;4996379;28;20069;-77
2023/03/08 01:00:57;;;;;;;12.63;10.20;;;;;;;3.88;63.34;96673.69;5008960;28;20464;-77
2023/03/08 01:03:23;;;;;;;11.90;10.40;;;;;;;3.92;63.25;96679.34;5008937;28;20029;-77
2023/03/08 01:05:51;;;;;;;14.73;10.77;;;;;;;3.93;62.69;96681.75;5018853;28;20045;-77
2023/03/08 01:08:17;;;;;;;13.90;9.98;;;;;;;3.93;63.45;96687.09;5002286;28;20022;-77
2023/03/08 01:10:56;;;;;;;14.02;11.23;;;;;;;3.94;62.29;96688.72;5008699;28;20041;-79
2023/03/08 01:13:22;;;;;;;13.68;11.02;;;;;;;3.87;63.08;96674.75;5025575;28;20037;-77
2023/03/08 01:15:48;;;;;;;12.50;10.93;;;;;;;3.87;62.33;96668.59;5004417;28;20124;-77
2023/03/08 01:18:13;;;;;;;14.18;11.27;;;;;;;3.99;62.70;96675.47;5018617;28;20065;-77
2023/03/08 01:20:39;;;;;;;11.88;10.25;;;;;;;3.99;62.31;96686.13;4999104;28;20458;-78
2023/03/08 01:23:04;;;;;;;14.07;10.40;;;;;;;3.98;61.96;96683.72;5029132;28;20116;-78
2023/03/08 01:25:29;;;;;;;13.07;10.40;;;;;;;3.91;62.16;96678.53;5020806;28;20108;-77
2023/03/08 01:27:56;;;;;;;11.95;10.10;;;;;;;3.98;62.26;96675.72;5018145;28;20087;-76
2023/03/08 01:30:21;;;;;;;14.55;10.35;;;;;;;3.99;62.13;96675.47;5015070;28;20432;-77
2023/03/08 01:32:46;;;;;;;12.73;10.27;;;;;;;3.91;62.82;96662.56;5018142;28;20069;-77
2023/03/08 01:35:12;;;;;;;12.60;9.90;;;;;;;3.90;62.89;96674.25;5022648;28;20061;-77
2023/03/08 01:37:37;;;;;;;12.90;10.15;;;;;;;3.92;63.08;96672.16;5008238;28;20143;-77
2023/03/08 01:40:04;;;;;;;14.13;11.10;;;;;;;3.96;62.08;96669.81;5020410;28;20495;-77
2023/03/08 01:42:30;;;;;;;13.82;10.90;;;;;;;3.95;62.10;96663.69;5015900;28;20076;-77
2023/03/08 01:44:57;;;;;;;13.13;11.07;;;;;;;3.91;62.64;96672.41;5003690;28;20053;-77
2023/03/08 01:47:26;;;;;;;12.15;10.27;;;;;;;3.91;62.76;96667.06;5031315;28;20516;-77
2023/03/08 01:50:12;;;;;;;15.10;11.02;;;;;;;3.89;63.01;96664.66;5017372;28;20053;-77
2023/03/08 01:52:47;;;;;;;14.02;10.93;;;;;;;3.98;62.30;96660.56;5017518;28;20559;-77
2023/03/08 01:55:14;;;;;;;12.35;10.65;;;;;;;3.90;63.14;96655.59;5001832;28;20034;-77
2023/03/08 01:57:44;;;;;;;15.13;10.85;;;;;;;3.91;62.67;96661.75;5008116;28;20548;-77
2023/03/08 02:00:12;;;;;;;15.02;10.63;;;;;;;3.93;62.93;96660.47;5024698;28;20048;-77
2023/03/08 02:02:49;;;;;;;13.40;10.82;;;;;;;3.93;62.44;96651.66;5034766;28;20076;-77
2023/03/08 02:05:17;;;;;;;13.05;11.13;;;;;;;3.90;62.00;96646.81;5018983;28;20034;-76
2023/03/08 02:07:44;;;;;;;13.88;10.88;;;;;;;3.88;62.24;96641.72;5000349;28;20053;-77
2023/03/08 02:10:11;;;;;;;12.13;10.38;;;;;;;3.88;62.35;96641.72;5004303;28;20531;-76
2023/03/08 02:12:37;;;;;;;11.35;10.07;;;;;;;3.86;62.76;96637.69;5031200;28;20037;-76
2023/03/08 02:15:05;;;;;;;13.88;10.50;;;;;;;3.82;62.64;96637.38;5000980;28;20042;-76
2023/03/08 02:17:34;;;;;;;13.40;10.65;;;;;;;3.78;62.13;96633.56;5020948;28;20026;-76
2023/03/08 02:20:23;;;;;;;12.70;10.60;;;;;;;3.82;62.31;96648.03;5023669;28;20065;-77
2023/03/08 02:22:52;;;;;;;12.02;10.20;;;;;;;3.79;62.78;96639.69;5007709;28;20037;-77
2023/03/08 02:25:25;;;;;;;15.57;10.82;;;;;;;3.78;62.42;96635.44;5018025;28;20025;-77
2023/03/08 02:27:51;;;;;;;14.82;10.88;;;;;;;3.85;62.73;96652.84;4984615;28;20033;-77
2023/03/08 02:30:24;;;;;;;10.90;9.63;;;;;;;3.81;61.81;96641.06;5006062;28;20033;-77
2023/03/08 02:32:50;;;;;;;13.07;10.25;;;;;;;3.79;62.12;96642.34;5007434;28;20041;-77
2023/03/08 02:35:15;;;;;;;11.85;9.90;;;;;;;3.79;62.40;96643.16;5003143;28;20150;-77
2023/03/08 02:37:41;;;;;;;12.68;10.57;;;;;;;3.79;62.04;96642.34;5000779;28;20060;-77
2023/03/08 02:40:07;;;;;;;12.35;10.05;;;;;;;3.82;62.32;96637.38;5021580;28;20500;-77
2023/03/08 02:42:32;;;;;;;12.00;10.40;;;;;;;3.83;62.55;96638.97;5023753;28;20069;-77
2023/03/08 02:44:58;;;;;;;13.45;10.23;;;;;;;3.83;62.61;96643.47;5010580;28;20030;-77
2023/03/08 02:47:23;;;;;;;13.98;10.50;;;;;;;3.86;62.36;96633.19;5026821;28;20120;-77
2023/03/08 02:49:49;;;;;;;14.43;10.27;;;;;;;3.85;62.16;96642.19;5031591;28;20022;-77
2023/03/08 02:52:14;;;;;;;13.98;9.30;;;;;;;3.81;62.53;96651.72;5013831;28;20131;-77
2023/03/08 02:54:41;;;;;;;12.73;10.70;;;;;;;3.86;62.08;96643.81;5005433;28;20417;-77
2023/03/08 02:57:06;;;;;;;11.68;10.23;;;;;;;3.73;62.20;96649.47;5024094;28;20049;-77
2023/03/08 02:59:33;;;;;;;14.05;9.95;;;;;;;3.79;62.76;96645.84;5002970;28;20480;-77
2023/03/08 03:01:59;;;;;;;12.13;10.25;;;;;;;3.75;62.79;96639.38;5016797;28;20141;-77
2023/03/08 03:04:31;;;;;;;12.00;9.73;;;;;;;3.80;61.70;96642.13;5005287;28;20022;-77
2023/03/08 03:06:59;;;;;;;12.85;10.27;;;;;;;3.76;61.70;96632.19;5010104;28;20036;-77
2023/03/08 03:09:26;;;;;;;13.60;10.70;;;;;;;3.82;62.84;96636.56;4997753;28;20388;-77
2023/03/08 03:11:52;;;;;;;12.85;10.02;;;;;;;3.74;61.84;96624.44;5000582;28;20040;-77
2023/03/08 03:14:18;;;;;;;13.25;10.48;;;;;;;3.66;62.35;96624.03;5003696;28;20074;-77
2023/03/08 03:16:44;;;;;;;12.15;10.18;;;;;;;3.63;62.00;96622.66;5007345;28;20501;-77
2023/03/08 03:19:10;;;;;;;15.85;11.88;;;;;;;3.64;62.68;96616.25;5003856;28;20017;-76
2023/03/08 03:21:37;;;;;;;13.90;11.10;;;;;;;3.66;61.97;96616.03;5000348;28;20511;-76
2023/03/08 03:24:03;;;;;;;15.15;12.75;;;;;;;3.66;62.36;96616.03;5003536;28;20030;-76
2023/03/08 03:26:36;;;;;;;13.90;11.68;;;;;;;3.60;62.51;96623.13;5023442;28;20034;-77
2023/03/08 03:29:02;;;;;;;13.18;11.02;;;;;;;3.54;62.79;96618.75;5004309;28;20511;-77
2023/03/08 03:31:31;;;;;;;12.30;10.18;;;;;;;3.56;62.12;96627.31;4998125;28;20382;-77
2023/03/08 03:33:57;;;;;;;12.98;10.57;;;;;;;3.52;62.56;96620.88;5005575;28;20041;-76
2023/03/08 03:36:25;;;;;;;13.20;9.93;;;;;;;3.52;62.92;96610.22;5032098;28;20028;-77
2023/03/08 03:38:51;;;;;;;14.15;10.77;;;;;;;3.63;61.93;96608.53;5033496;28;20025;-77
2023/03/08 03:41:19;;;;;;;14.18;10.35;;;;;;;3.60;62.90;96612.47;5028760;28;20065;-77
2023/03/08 03:43:47;;;;;;;13.25;10.48;;;;;;;3.50;62.98;96613.09;5025651;28;20037;-77
2023/03/08 03:46:17;;;;;;;13.32;10.88;;;;;;;3.54;62.31;96613.44;5017063;28;20025;-76
2023/03/08 03:48:45;;;;;;;13.27;10.18;;;;;;;3.55;62.49;96608.94;5004750;28;20069;-76
2023/03/08 03:51:17;;;;;;;12.77;10.88;;;;;;;3.61;61.82;96624.75;5003887;28;20033;-76
2023/03/08 03:53:47;;;;;;;12.38;10.57;;;;;;;3.52;62.17;96623.53;5019959;28;20041;-76
2023/03/08 03:56:17;;;;;;;13.90;10.75;;;;;;;3.48;62.81;96619.69;5009115;28;20044;-77
2023/03/08 03:58:43;;;;;;;12.82;10.18;;;;;;;3.53;62.46;96622.47;5027994;28;20037;-76
2023/03/08 04:01:13;;;;;;;11.98;10.25;;;;;;;3.48;62.84;96619.69;5005298;28;20423;-75
2023/03/08 04:03:38;;;;;;;12.75;10.88;;;;;;;3.43;62.74;96630.28;5003192;28;20406;-75
2023/03/08 04:06:06;;;;;;;12.57;11.07;;;;;;;3.48;62.25;96622.34;5000203;28;20119;-76
2023/03/08 04:08:40;;;;;;;13.68;11.10;;;;;;;3.45;62.26;96628.19;5004052;28;20056;-76
2023/03/08 04:11:14;;;;;;;15.52;10.45;;;;;;;3.44;62.16;96640.66;5006940;28;20030;-75
2023/03/08 04:13:40;;;;;;;13.40;10.35;;;;;;;3.51;62.75;96637.84;5031272;28;20517;-75
2023/03/08 04:16:23;;;;;;;15.20;11.35;;;;;;;3.44;63.24;96631.88;5021415;28;20061;-76
2023/03/08 04:18:57;;;;;;;14.80;10.27;;;;;;;3.45;62.42;96626.31;5036736;28;20029;-76
2023/03/08 04:21:24;;;;;;;12.02;10.60;;;;;;;3.47;62.28;96634.88;5032681;28;20033;-76
2023/03/08 04:23:50;;;;;;;13.18;11.05;;;;;;;3.48;62.24;96635.66;5024167;28;20033;-76
2023/03/08 04:26:16;;;;;;;13.60;11.10;;;;;;;3.42;62.66;96628.66;5009950;28;20030;-76
2023/03/08 04:28:42;;;;;;;15.52;11.07;;;;;;;3.44;62.37;96630.03;5032745;28;20017;-75
2023/03/08 04:31:16;;;;;;;13.80;11.07;;;;;;;3.51;62.62;96616.56;5016058;28;20036;-75
2023/03/08 04:33:41;;;;;;;14.10;10.85;;;;;;;3.38;63.11;96620.31;5015946;28;20118;-76
2023/03/08 04:36:07;;;;;;;14.93;11.45;;;;;;;3.38;62.81;96636.28;5002936;28;20071;-76
2023/03/08 04:38:33;;;;;;;13.57;12.00;;;;;;;3.42;62.92;96636.63;5022873;28;20033;-75
2023/03/08 04:41:10;;;;;;;12.77;11.32;;;;;;;3.55;62.40;96619.59;5030010;28;20033;-75
2023/03/08 04:44:08;;;;;;;12.02;10.77;;;;;;;3.41;62.59;96613.72;5026308;28;20059;-75
2023/03/08 04:46:39;;;;;;;14.10;11.73;;;;;;;3.34;62.19;96595.25;5033098;28;20060;-75
2023/03/08 04:49:05;;;;;;;14.82;11.32;;;;;;;3.40;62.10;96604.13;5049756;28;20030;-75
2023/03/08 04:51:37;;;;;;;15.98;11.68;;;;;;;3.43;62.49;96606.31;5001592;28;20025;-76
2023/03/08 04:54:06;;;;;;;14.50;11.65;;;;;;;3.36;62.07;96600.34;5016038;28;20424;-75
2023/03/08 04:56:35;;;;;;;13.48;11.20;;;;;;;3.39;62.14;96589.19;5021697;28;20393;-75
2023/03/08 04:59:02;;;;;;;15.43;10.95;;;;;;;3.33;61.95;96582.19;5013400;28;20033;-77
2023/03/08 05:01:27;;;;;;;13.50;11.32;;;;;;;3.41;61.94;96576.47;5015460;28;20477;-75
2023/03/08 05:03:53;;;;;;;13.55;11.18;;;;;;;3.43;61.85;96574.41;5035180;28;20033;-75
2023/03/08 05:06:25;;;;;;;14.80;11.05;;;;;;;3.48;61.38;96574.47;5020121;28;20025;-76
2023/03/08 05:08:53;;;;;;;15.27;11.50;;;;;;;3.36;62.28;96568.41;5040096;23;20128;-75
2023/03/08 05:11:24;;;;;;;12.40;10.70;;;;;;;3.34;61.52;96565.16;5015061;28;20112;-74
2023/03/08 05:13:52;;;;;;;16.88;11.85;;;;;;;3.42;61.06;96552.31;5051232;28;20078;-75
2023/03/08 05:16:18;;;;;;;14.50;10.90;;;;;;;3.44;61.52;96557.38;5035044;28;20515;-74
2023/03/08 05:18:44;;;;;;;14.45;11.68;;;;;;;3.37;62.08;96570.00;5049999;28;20045;-74
2023/03/08 05:21:15;;;;;;;13.18;10.77;;;;;;;3.39;61.56;96567.91;5011832;28;20117;-74
2023/03/08 05:23:42;;;;;;;14.13;11.45;;;;;;;3.35;62.16;96572.94;5011596;28;20033;-73
2023/03/08 05:26:11;;;;;;;14.52;10.85;;;;;;;3.38;61.60;96558.34;5028104;28;20113;-74
2023/03/08 05:28:37;;;;;;;15.32;11.27;;;;;;;3.35;61.89;96562.28;5011569;28;20397;-74
2023/03/08 05:31:04;;;;;;;15.05;11.60;;;;;;;3.48;61.52;96561.16;5011473;28;20116;-74
2023/03/08 05:33:34;;;;;;;19.27;16.90;;;;;;;3.44;61.95;96557.38;5027719;28;20041;-75
2023/03/08 05:36:00;;;;;;;14.23;12.18;;;;;;;3.47;60.90;96559.56;5011530;28;20030;-74
2023/03/08 05:38:25;;;;;;;17.38;15.52;;;;;;;3.46;61.21;96558.75;5011301;28;20049;-75
2023/03/08 05:40:51;;;;;;;13.95;11.13;;;;;;;3.46;61.82;96557.94;5011660;28;20030;-75
2023/03/08 05:43:17;;;;;;;14.82;11.63;;;;;;;3.51;61.97;96550.03;5011174;28;20128;-74
2023/03/08 05:45:54;;;;;;;14.10;11.93;;;;;;;3.46;61.37;96547.28;4994884;28;20041;-74
2023/03/08 05:48:20;;;;;;;13.38;11.38;;;;;;;3.29;62.62;96546.47;4978904;28;20030;-74
2023/03/08 05:50:45;;;;;;;13.52;10.60;;;;;;;3.42;61.42;96554.16;5027319;28;20044;-74
2023/03/08 05:53:11;;;;;;;15.00;10.68;;;;;;;3.33;61.55;96542.28;5030777;28;20060;-75
2023/03/08 05:55:36;;;;;;;13.07;10.95;;;;;;;3.35;61.53;96553.50;5030142;28;20368;-74
2023/03/08 05:58:03;;;;;;;16.05;10.73;;;;;;;3.30;62.86;96553.41;5020774;28;20033;-74
2023/03/08 06:00:28;;;;;;;13.63;11.10;;;;;;;3.35;62.12;96556.97;5040926;28;20062;-75
2023/03/08 06:02:58;;;;;;;13.10;11.32;;;;;;;3.31;63.11;96555.03;5000822;28;20037;-74
2023/03/08 06:05:24;;;;;;;12.10;10.45;;;;;;;3.31;62.56;96566.44;5013394;28;20037;-74
2023/03/08 06:07:53;;;;;;;13.65;10.93;;;;;;;3.42;62.25;96573.59;5031566;28;20025;-74
2023/03/08 06:10:19;;;;;;;15.25;10.27;;;;;;;3.53;62.08;96568.44;5030354;28;20072;-75
2023/03/08 06:12:44;;;;;;;13.70;10.52;;;;;;;3.59;62.32;96556.84;5013029;28;20041;-74
2023/03/08 06:15:13;;;;;;;13.65;10.40;;;;;;;3.55;61.67;96553.84;5025629;28;20033;-74
2023/03/08 06:17:39;;;;;;;15.20;11.30;;;;;;;3.45;62.58;96562.44;4993897;28;20144;-75
2023/03/08 06:20:05;;;;;;;14.20;11.02;;;;;;;3.52;62.08;96572.97;5010436;28;20044;-75
2023/03/08 06:22:33;;;;;;;15.20;10.70;;;;;;;3.48;62.51;96571.81;4994410;28;20112;-75
2023/03/08 06:25:00;;;;;;;14.45;10.48;;;;;;;3.42;62.32;96573.59;5010393;28;20041;-75
2023/03/08 06:27:31;;;;;;;12.07;10.68;;;;;;;3.47;62.50;96571.03;4990911;28;20025;-75
2023/03/08 06:30:00;;;;;;;15.05;11.25;;;;;;;3.51;62.93;96576.66;4995792;28;20030;-75
2023/03/08 06:32:26;;;;;;;13.00;10.60;;;;;;;3.36;62.99;96568.41;5010605;28;20029;-75
2023/03/08 06:34:51;;;;;;;17.48;12.10;;;;;;;3.24;63.35;96576.44;5010251;28;20493;-75
2023/03/08 06:37:17;;;;;;;22.00;14.80;;;;;;;3.27;62.90;96573.28;5022403;28;20667;-75
2023/03/08 06:39:43;;;;;;;34.53;24.08;;;;;;;3.29;62.10;96573.88;5029929;28;20034;-73
2023/03/08 06:42:08;;;;;;;17.58;12.75;;;;;;;3.37;62.45;96559.38;5030034;28;20103;-75
2023/03/08 06:44:34;;;;;;;19.33;15.25;;;;;;;3.32;62.65;96557.44;4997009;28;20048;-75
2023/03/08 06:46:59;;;;;;;13.90;11.77;;;;;;;3.24;61.97;96559.69;5013693;28;20100;-75
2023/03/08 06:49:25;;;;;;;13.52;10.10;;;;;;;3.32;61.88;96553.97;5013587;28;20502;-75
2023/03/08 06:51:50;;;;;;;14.27;9.75;;;;;;;3.39;61.60;96554.63;5030010;28;20021;-75
2023/03/08 06:54:16;;;;;;;13.63;10.88;;;;;;;3.44;61.99;96560.03;5012786;28;20038;-75
2023/03/08 06:56:44;;;;;;;13.43;10.80;;;;;;;3.39;61.30;96559.94;5017678;28;20029;-75
2023/03/08 06:59:11;;;;;;;14.07;10.48;;;;;;;3.36;61.98;96557.78;5024641;28;20042;-75
2023/03/08 07:01:36;;;;;;;12.07;10.38;;;;;;;3.35;61.88;96574.78;5010199;28;20048;-75
2023/03/08 07:04:01;;;;;;;12.10;10.73;;;;;;;3.37;61.43;96570.00;5008541;28;20122;-75
2023/03/08 07:06:27;;;;;;;15.15;13.18;;;;;;;3.37;61.38;96570.84;5023051;28;20053;-75
2023/03/08 07:08:53;;;;;;;15.93;11.50;;;;;;;3.42;61.60;96578.09;5012991;28;20400;-75
2023/03/08 07:11:18;;;;;;;14.75;12.50;;;;;;;3.36;61.40;96568.41;5025194;28;20384;-75
2023/03/08 07:13:43;;;;;;;15.70;11.98;;;;;;;3.33;62.03;96574.22;5005533;28;20030;-75
2023/03/08 07:16:11;;;;;;;13.80;10.68;;;;;;;3.24;61.61;96565.81;5023564;28;20026;-75
2023/03/08 07:18:37;;;;;;;12.82;10.68;;;;;;;3.28;63.47;96576.78;5029660;28;20063;-75
2023/03/08 07:21:03;;;;;;;15.52;10.93;;;;;;;2.95;65.55;96589.94;5013205;28;20103;-75
2023/03/08 07:23:28;;;;;;;13.45;10.95;;;;;;;2.79;66.13;96581.69;5040465;28;20117;-75
2023/03/08 07:25:53;;;;;;;14.52;11.20;;;;;;;2.89;66.42;96588.25;5030262;28;20117;-75
2023/03/08 07:28:20;;;;;;;14.70;11.60;;;;;;;3.11;66.07;96586.53;5012225;28;20439;-75
2023/03/08 07:30:50;;;;;;;14.13;11.02;;;;;;;3.25;65.91;96572.72;5033891;28;20112;-75
2023/03/08 07:33:16;;;;;;;13.57;10.93;;;;;;;3.35;65.74;96561.47;5016484;28;20504;-75
2023/03/08 07:35:42;;;;;;;13.35;11.20;;;;;;;2.93;66.38;96563.59;5029502;28;20041;-75
2023/03/08 07:38:07;;;;;;;13.52;11.05;;;;;;;3.13;67.40;96565.84;5010711;28;20038;-75
2023/03/08 07:40:33;;;;;;;14.50;11.85;;;;;;;3.13;67.25;96573.81;5021916;28;20029;-75
2023/03/08 07:42:59;;;;;;;15.40;12.05;;;;;;;2.80;68.43;96579.84;5029236;28;20033;-75
2023/03/08 07:45:47;;;;;;;13.93;11.70;;;;;;;3.02;69.13;96587.97;5028866;28;20037;-75
2023/03/08 07:48:12;;;;;;;13.85;11.63;;;;;;;3.17;67.97;96585.59;5026592;28;20038;-75
2023/03/08 07:50:37;;;;;;;15.32;12.30;;;;;;;2.86;68.83;96572.75;5030634;28;20108;-75
2023/03/08 07:53:03;;;;;;;14.82;12.50;;;;;;;2.66;70.99;96573.94;5029314;28;20045;-75
2023/03/08 07:55:29;;;;;;;15.00;13.40;;;;;;;2.75;71.41;96577.84;5045735;28;20025;-75
2023/03/08 07:57:54;;;;;;;20.60;18.20;;;;;;;2.36;75.03;96583.94;5029275;28;20112;-75
2023/03/08 08:00:20;;;;;;;20.98;19.08;;;;;;;2.46;75.71;96583.34;5027987;28;20029;-75
2023/03/08 08:02:46;;;;;;;29.23;26.83;;;;;;;2.32;77.26;96585.44;5000964;28;20052;-75
2023/03/08 08:05:12;;;;;;;32.85;30.27;;;;;;;2.04;78.35;96590.63;5027386;28;20373;-76
2023/03/08 08:07:37;;;;;;;36.28;33.45;;;;;;;2.24;77.41;96588.44;4993509;28;20034;-75
2023/03/08 08:10:03;;;;;;;35.40;32.80;;;;;;;2.35;78.64;96592.94;5027640;28;20099;-75
2023/03/08 08:12:29;;;;;;;43.13;40.13;;;;;;;2.04;79.18;96595.94;5018544;28;20037;-75
2023/03/08 08:14:54;;;;;;;43.35;40.17;;;;;;;2.15;80.01;96589.81;5027235;28;20028;-75
2023/03/08 08:17:20;;;;;;;45.40;42.35;;;;;;;2.11;79.97;96586.03;5009632;28;20048;-75
2023/03/08 08:19:46;;;;;;;49.90;46.53;;;;;;;2.20;79.78;96581.16;5012154;28;20030;-75
2023/03/08 08:22:11;;;;;;;52.15;48.45;;;;;;;1.98;81.24;96578.28;4988693;28;20584;-74
2023/03/08 08:24:37;;;;;;;56.00;52.20;;;;;;;2.24;80.47;96579.69;5032271;28;20032;-76
2023/03/08 08:27:02;;;;;;;57.15;53.25;;;;;;;2.40;80.72;96563.84;5032498;28;20036;-75
2023/03/08 08:29:28;;;;;;;60.05;56.05;;;;;;;2.25;81.45;96563.50;5026625;28;20108;-75
2023/03/08 08:31:54;;;;;;;63.00;58.50;;;;;;;2.08;81.56;96555.44;5049275;28;20378;-75
2023/03/08 08:34:19;;;;;;;69.95;64.85;;;;;;;2.09;82.60;96553.59;5002500;28;20018;-75
2023/03/08 08:36:45;;;;;;;74.57;69.07;;;;;;;2.19;81.46;96545.84;5015938;28;20147;-74
2023/03/08 08:39:10;;;;;;;75.03;69.72;;;;;;;2.20;81.82;96536.84;5013460;28;20044;-75
2023/03/08 08:41:36;;;;;;;70.28;65.18;;;;;;;2.09;82.25;96529.69;5033571;28;20037;-75
2023/03/08 08:44:01;;;;;;;71.22;65.80;;;;;;;2.15;82.33;96523.44;5034511;28;20149;-74
2023/03/08 08:46:27;;;;;;;68.25;63.60;;;;;;;1.92;84.37;96523.44;5021310;28;20396;-75
2023/03/08 08:48:53;;;;;;;68.47;63.63;;;;;;;2.07;82.13;96500.72;5015429;28;20396;-74
2023/03/08 08:51:19;;;;;;;69.05;64.20;;;;;;;2.18;82.57;96492.97;5032379;28;20088;-75
2023/03/08 08:53:44;;;;;;;65.32;61.10;;;;;;;2.34;82.05;96479.78;5033241;28;20524;-75
2023/03/08 08:56:18;;;;;;;67.00;61.92;;;;;;;1.83;84.04;96477.06;5044465;28;20552;-75
2023/03/08 08:58:45;;;;;;;65.68;61.33;;;;;;;1.99;82.85;96476.38;5031819;28;20496;-74
2023/03/08 09:01:19;;;;;;;64.15;59.55;;;;;;;2.07;83.51;96468.06;5015693;28;20033;-75
2023/03/08 09:03:45;;;;;;;65.85;60.85;;;;;;;1.82;83.83;96449.72;5015348;28;20045;-74
2023/03/08 09:06:11;;;;;;;66.30;61.53;;;;;;;1.79;84.99;96442.25;5006031;28;20028;-75
2023/03/08 09:08:36;;;;;;;66.95;62.13;;;;;;;1.77;84.88;96439.03;5025147;28;20033;-74
2023/03/08 09:11:07;;;;;;;69.53;64.10;;;;;;;2.00;84.30;96449.59;5012080;28;20401;-75
2023/03/08 09:13:33;;;;;;;69.72;65.03;;;;;;;2.07;83.96;96441.50;4995353;28;20038;-74
2023/03/08 09:15:59;;;;;;;68.13;63.30;;;;;;;1.89;85.46;96439.00;4995667;28;20477;-75
2023/03/08 09:18:25;;;;;;;69.68;64.95;;;;;;;1.82;85.13;96433.03;5028572;28;20049;-75
2023/03/08 09:20:50;;;;;;;69.18;64.32;;;;;;;1.91;83.74;96426.31;5021557;28;20029;-76
2023/03/08 09:23:16;;;;;;;70.50;65.32;;;;;;;1.96;84.84;96423.78;5041250;28;20076;-76
2023/03/08 09:25:41;;;;;;;69.10;63.63;;;;;;;1.76;85.93;96412.69;5022060;28;20029;-75
2023/03/08 09:28:07;;;;;;;72.57;67.30;;;;;;;1.84;85.04;96404.41;5018200;28;20696;-75
2023/03/08 09:30:32;;;;;;;68.03;62.65;;;;;;;1.75;85.51;96406.59;5036971;28;20072;-76
2023/03/08 09:32:58;;;;;;;67.88;63.05;;;;;;;1.73;84.94;96397.25;5037493;28;20144;-75
2023/03/08 09:35:24;;;;;;;72.38;66.90;;;;;;;1.63;85.92;96386.44;5038195;28;20026;-75
2023/03/08 09:37:49;;;;;;;74.63;68.63;;;;;;;1.54;85.80;96387.81;5041299;28;20038;-75
2023/03/08 09:40:20;;;;;;;73.97;68.28;;;;;;;1.72;85.24;96379.72;5021198;28;20041;-75
2023/03/08 09:42:46;;;;;;;71.00;65.22;;;;;;;1.58;86.40;96381.00;5017976;28;20043;-75
2023/03/08 09:45:16;;;;;;;70.60;65.30;;;;;;;1.69;86.57;96372.22;5020442;28;20113;-75
2023/03/08 09:48:12;;;;;;;71.13;65.57;;;;;;;1.67;85.07;96359.19;5040993;28;20481;-75
2023/03/08 09:50:50;;;;;;;65.95;60.92;;;;;;;1.66;85.89;96357.56;5013269;28;20034;-76
2023/03/08 09:53:37;;;;;;;69.30;64.40;;;;;;;1.86;85.67;96343.94;5030862;28;20045;-75
2023/03/08 09:56:28;;;;;;;65.15;60.45;;;;;;;1.84;84.95;96338.06;5001262;28;20100;-75
2023/03/08 09:59:25;;;;;;;62.97;59.00;;;;;;;1.68;85.06;96325.53;5030871;28;20053;-75
2023/03/08 10:01:59;;;;;;;61.55;57.50;;;;;;;1.79;85.44;96316.72;5014283;28;20404;-76
2023/03/08 10:04:44;;;;;;;62.50;58.33;;;;;;;1.97;83.91;96301.44;5000013;28;20498;-75
2023/03/08 10:07:21;;;;;;;64.13;59.57;;;;;;;1.80;84.33;96302.41;5031971;28;20516;-76
2023/03/08 10:10:11;;;;;;;59.45;55.25;;;;;;;1.97;84.71;96290.00;5034951;28;20044;-75
2023/03/08 10:13:32;;;;;;;59.97;55.92;;;;;;;2.12;83.82;96290.28;5019402;28;20044;-75
2023/03/08 10:16:03;;;;;;;60.20;56.05;;;;;;;2.15;84.25;96284.50;4993394;28;20486;-76
2023/03/08 10:19:02;;;;;;;64.07;59.50;;;;;;;2.09;84.49;96274.84;5026080;28;20056;-75
2023/03/08 10:21:30;;;;;;;59.60;55.55;;;;;;;2.00;83.85;96271.78;5026747;28;20048;-75
2023/03/08 10:24:27;;;;;;;61.92;57.13;;;;;;;1.82;84.34;96268.50;5038599;28;20048;-76
2023/03/08 10:27:21;;;;;;;61.50;56.92;;;;;;;1.91;85.29;96267.06;5023976;28;20045;-75
2023/03/08 10:29:54;;;;;;;66.90;62.13;;;;;;;2.08;84.77;96278.53;5013157;28;20052;-76
2023/03/08 10:32:20;;;;;;;63.70;58.75;;;;;;;1.91;84.25;96267.84;5020368;28;20441;-75
2023/03/08 10:34:46;;;;;;;61.88;57.70;;;;;;;1.83;84.58;96264.78;5040352;28;20146;-75
2023/03/08 10:37:12;;;;;;;63.53;58.97;;;;;;;1.99;84.07;96274.63;5021275;28;20108;-75
2023/03/08 10:39:51;;;;;;;57.50;53.42;;;;;;;2.00;83.67;96274.41;5000522;28;20453;-75
2023/03/08 10:42:19;;;;;;;57.88;53.85;;;;;;;1.88;85.17;96278.16;5019228;28;20026;-75
2023/03/08 10:44:51;;;;;;;61.50;56.90;;;;;;;2.11;83.84;96278.06;5007495;28;20033;-76
2023/03/08 10:47:20;;;;;;;63.78;59.33;;;;;;;2.12;84.44;96277.03;5024903;28;20038;-76
2023/03/08 10:49:46;;;;;;;64.40;59.97;;;;;;;2.27;83.15;96271.97;5030093;28;20033;-75
2023/03/08 10:52:23;;;;;;;66.72;61.50;;;;;;;1.89;84.25;96269.16;5016606;28;20053;-76
2023/03/08 10:55:06;;;;;;;63.08;58.80;;;;;;;2.16;84.78;96264.88;5036888;28;20109;-75
2023/03/08 10:57:32;;;;;;;59.22;55.10;;;;;;;2.21;83.58;96262.31;5023367;28;20085;-76
2023/03/08 11:00:08;;;;;;;60.72;56.83;;;;;;;2.51;82.62;96260.16;5022002;28;20047;-75
2023/03/08 11:02:33;;;;;;;59.88;55.47;;;;;;;2.24;83.49;96261.81;5017974;28;20034;-76
2023/03/08 11:04:59;;;;;;;61.75;56.83;;;;;;;2.04;85.00;96245.53;5016579;28;20113;-76
2023/03/08 11:07:31;;;;;;;60.70;56.50;;;;;;;2.33;84.38;96238.34;5033423;28;20124;-75
2023/03/08 11:10:14;;;;;;;60.65;56.10;;;;;;;2.30;84.51;96244.94;5081287;22;20064;-75
2023/03/08 11:12:39;;;;;;;60.47;55.78;;;;;;;2.08;85.91;96230.72;5070090;28;20384;-75
2023/03/08 11:15:13;;;;;;;66.15;61.35;;;;;;;2.07;85.62;96218.53;5036386;28;20024;-75
2023/03/08 11:17:43;;;;;;;65.75;60.67;;;;;;;1.89;86.21;96216.09;5053238;28;20025;-75
2023/03/08 11:20:40;;;;;;;65.28;60.33;;;;;;;2.26;85.78;96189.91;5054756;28;20037;-75
2023/03/08 11:23:35;;;;;;;67.20;62.10;;;;;;;2.17;86.42;96204.63;5037752;28;20048;-75
2023/03/08 11:26:12;;;;;;;68.70;63.20;;;;;;;2.18;85.86;96212.34;5029575;28;20041;-76
2023/03/08 11:28:53;;;;;;;63.20;58.53;;;;;;;2.22;86.54;96205.50;5017622;28;20033;-75
2023/03/08 11:31:30;;;;;;;64.30;59.53;;;;;;;2.17;86.38;96192.13;5033005;28;20037;-75